ESCF/LPI METAR and TAF weather

Enter ICAO airport designator
Station Type Date Time Source
ESCF METAR 2018/04/23 11:20 UTC NOAA

ESCF 231120Z 11009KT 9999 SCT010 BKN029 BKN050 06/05 Q1004 RERA


Station Type Date Time Source
ESCF Decoded METAR 2018/04/23 11:20 UTC NOAA

Linkoping / Malmen, Sweden (ESCF) 58-24N 015-31E 117M
Apr 23, 2018 - 07:20 AM EDT / 2018.04.23 1120 UTC
Wind: from the ESE (110 degrees) at 10 MPH (9 KT):0
Visibility: greater than 7 mile(s):0
Sky conditions: mostly cloudy
Temperature: 42 F (6 C)
Dew Point: 41 F (5 C)
Relative Humidity: 93%
Pressure (altimeter): 29.65 in. Hg (1004 hPa)
ob: ESCF 231120Z 11009KT 9999 SCT010 BKN029 BKN050 06/05 Q1004 RERA
cycle: 11

Station Type Date Time Source
ESCF TAF UTC NOAA

Error!


Example: see airport list